createdAt,value
2019-04-27T00:03:02.055Z,10.40
2019-04-27T00:08:48.119Z,10.40
2019-04-27T00:11:30.692Z,10.40
2019-04-27T00:14:15.069Z,10.40
2019-04-27T00:19:35.386Z,10.40
2019-04-27T00:22:35.700Z,10.30
2019-04-27T00:25:16.235Z,10.30
2019-04-27T00:27:56.876Z,10.20
2019-04-27T00:30:37.531Z,10.20
2019-04-27T00:33:18.020Z,10.20
2019-04-27T00:36:00.880Z,10.20
2019-04-27T00:38:43.602Z,10.10
2019-04-27T00:41:24.239Z,10.10
2019-04-27T00:44:05.653Z,10.10
2019-04-27T00:46:45.860Z,10.10
2019-04-27T00:49:26.560Z,10.00
2019-04-27T00:52:07.332Z,9.90
2019-04-27T00:54:47.696Z,9.80
2019-04-27T01:00:56.812Z,9.80
2019-04-27T01:06:30.919Z,9.70
2019-04-27T01:09:13.481Z,9.70
2019-04-27T01:11:54.417Z,9.60
2019-04-27T01:14:34.888Z,9.60
2019-04-27T01:17:15.648Z,9.60
2019-04-27T01:19:56.491Z,9.50
2019-04-27T01:22:37.252Z,9.60
2019-04-27T01:25:18.883Z,9.50
2019-04-27T01:28:01.491Z,9.50
2019-04-27T01:30:46.776Z,9.50
2019-04-27T01:33:28.339Z,9.50
2019-04-27T01:36:10.786Z,9.50
2019-04-27T01:38:51.415Z,9.50
2019-04-27T01:41:32.216Z,9.50
2019-04-27T01:44:13.340Z,9.40
2019-04-27T01:46:53.708Z,9.40
2019-04-27T01:49:34.323Z,9.30
2019-04-27T01:52:14.638Z,9.20
2019-04-27T01:54:55.008Z,9.20
2019-04-27T01:57:35.756Z,9.20
2019-04-27T02:00:19.347Z,9.10
2019-04-27T02:03:04.380Z,9.00
2019-04-27T02:05:46.312Z,9.00
2019-04-27T02:08:28.622Z,9.00
2019-04-27T02:11:09.244Z,9.00
2019-04-27T02:13:51.886Z,9.00
2019-04-27T02:16:32.635Z,9.00
2019-04-27T02:19:13.388Z,9.00
2019-04-27T02:21:54.282Z,8.90
2019-04-27T02:24:34.555Z,8.90
2019-04-27T02:27:18.657Z,8.90
2019-04-27T02:30:21.249Z,8.80
2019-04-27T02:36:06.805Z,8.60
2019-04-27T02:38:49.203Z,8.60
2019-04-27T02:41:29.978Z,8.60
2019-04-27T02:47:20.523Z,8.60
2019-04-27T02:50:00.727Z,8.60
2019-04-27T02:52:42.871Z,8.50
2019-04-27T02:55:24.075Z,8.50
2019-04-27T02:58:04.754Z,8.40
2019-04-27T03:00:45.516Z,8.30
2019-04-27T03:03:25.950Z,8.30
2019-04-27T03:06:06.809Z,8.20
2019-04-27T03:08:53.365Z,8.20
2019-04-27T03:11:31.626Z,8.20
2019-04-27T03:14:28.382Z,8.20
2019-04-27T03:17:22.214Z,8.10
2019-04-27T03:23:09.835Z,8.20
2019-04-27T03:25:52.427Z,8.20
2019-04-27T03:28:33.585Z,8.20
2019-04-27T03:31:14.410Z,8.20
2019-04-27T03:34:03.449Z,8.30
2019-04-27T03:36:39.552Z,8.30
2019-04-27T03:39:20.139Z,8.40
2019-04-27T03:42:00.799Z,8.40
2019-04-27T03:44:41.577Z,8.40
2019-04-27T03:47:22.192Z,8.50
2019-04-27T03:50:03.169Z,8.50
2019-04-27T03:55:59.979Z,8.60
2019-04-27T03:58:41.665Z,8.60
2019-04-27T04:01:22.073Z,8.50
2019-04-27T04:04:02.824Z,8.50
2019-04-27T04:06:43.420Z,8.50
2019-04-27T04:09:25.545Z,8.50
2019-04-27T04:12:09.589Z,8.50
2019-04-27T04:14:49.965Z,8.50
2019-04-27T04:17:31.106Z,8.60
2019-04-27T04:20:12.173Z,8.60
2019-04-27T04:22:53.032Z,8.70
2019-04-27T04:25:33.521Z,8.80
2019-04-27T04:28:14.169Z,8.80
2019-04-27T04:30:54.458Z,8.80
2019-04-27T04:33:35.363Z,8.80
2019-04-27T04:36:15.979Z,8.80
2019-04-27T04:38:56.601Z,8.90
2019-04-27T04:41:59.737Z,8.90
2019-04-27T04:44:41.169Z,8.90
2019-04-27T04:47:25.988Z,8.90
2019-04-27T04:50:12.042Z,8.90
2019-04-27T04:52:49.954Z,9.00
2019-04-27T04:55:30.989Z,9.10
2019-04-27T04:58:11.509Z,9.20
2019-04-27T05:00:52.046Z,9.20
2019-04-27T05:03:32.671Z,9.30
2019-04-27T05:06:13.072Z,9.30
2019-04-27T05:08:57.180Z,9.30
2019-04-27T05:11:39.613Z,9.30
2019-04-27T05:14:20.797Z,9.30
2019-04-27T05:17:01.360Z,9.20
2019-04-27T05:19:42.395Z,9.30
2019-04-27T05:22:22.680Z,9.30
2019-04-27T05:25:03.285Z,9.40
2019-04-27T05:27:44.096Z,9.40
2019-04-27T05:30:24.792Z,9.50
2019-04-27T05:33:05.875Z,9.50
2019-04-27T05:35:46.330Z,9.60
2019-04-27T05:38:27.101Z,9.70
2019-04-27T05:41:08.534Z,10.00
2019-04-27T05:47:05.328Z,10.50
2019-04-27T05:49:46.502Z,10.70
2019-04-27T05:52:30.100Z,11.20
2019-04-27T05:55:11.280Z,11.70
2019-04-27T05:57:52.547Z,12.20
2019-04-27T06:00:33.246Z,12.70
2019-04-27T06:03:13.764Z,13.10
2019-04-27T06:05:54.844Z,13.70
2019-04-27T06:08:35.431Z,13.80
2019-04-27T06:11:16.452Z,13.70
2019-04-27T06:13:59.214Z,13.40
2019-04-27T06:16:40.243Z,13.40
2019-04-27T06:19:21.431Z,13.70
2019-04-27T06:22:01.862Z,14.20
2019-04-27T06:24:42.524Z,14.60
2019-04-27T06:27:22.908Z,15.10
2019-04-27T06:30:04.937Z,15.60
2019-04-27T06:32:45.381Z,15.70
2019-04-27T06:35:26.192Z,16.10
2019-04-27T06:38:07.465Z,16.30
2019-04-27T06:40:49.023Z,16.00
2019-04-27T06:43:29.908Z,15.80
2019-04-27T06:46:10.443Z,15.60
2019-04-27T06:48:51.203Z,15.30
2019-04-27T06:51:31.773Z,15.30
2019-04-27T06:54:13.404Z,15.20
2019-04-27T06:56:54.043Z,14.70
2019-04-27T06:59:34.571Z,14.50
2019-04-27T07:02:15.255Z,14.40
2019-04-27T07:04:56.088Z,14.10
2019-04-27T07:07:36.800Z,13.80
2019-04-27T07:10:18.587Z,13.40
2019-04-27T07:12:59.691Z,13.20
2019-04-27T07:15:40.904Z,13.10
2019-04-27T07:18:21.307Z,12.90
2019-04-27T07:21:01.962Z,12.80
2019-04-27T07:24:01.783Z,12.80
2019-04-27T07:26:40.700Z,12.70
2019-04-27T07:29:29.230Z,12.70
2019-04-27T07:32:19.280Z,12.70
2019-04-27T07:35:07.327Z,12.70
2019-04-27T07:37:55.043Z,12.80
2019-04-27T07:40:42.778Z,13.00
2019-04-27T07:46:39.299Z,12.90
2019-04-27T07:49:29.044Z,12.60
2019-04-27T07:52:18.541Z,12.40
2019-04-27T07:55:06.487Z,12.40
2019-04-27T07:57:54.502Z,12.30
2019-04-27T08:00:42.208Z,12.20
2019-04-27T08:03:29.936Z,12.20
2019-04-27T08:06:18.945Z,12.10
2019-04-27T08:09:09.371Z,12.10
2019-04-27T08:11:58.670Z,12.00
2019-04-27T08:14:49.001Z,11.80
2019-04-27T08:17:36.809Z,11.80
2019-04-27T08:20:24.764Z,11.80
2019-04-27T08:23:12.816Z,11.90
2019-04-27T08:25:53.884Z,12.00
2019-04-27T08:28:54.957Z,12.00
2019-04-27T08:31:38.658Z,12.00
2019-04-27T08:34:39.734Z,12.00
2019-04-27T08:37:20.625Z,11.90
2019-04-27T08:40:01.088Z,12.00
2019-04-27T08:42:41.616Z,12.00
2019-04-27T08:45:22.304Z,12.10
2019-04-27T08:48:03.080Z,12.10
2019-04-27T08:50:43.944Z,12.20
2019-04-27T08:53:25.200Z,12.30
2019-04-27T08:56:05.836Z,12.20
2019-04-27T08:58:46.668Z,12.20
2019-04-27T09:01:27.584Z,12.20
2019-04-27T09:04:09.211Z,12.30
2019-04-27T09:06:52.505Z,12.40
2019-04-27T09:09:52.511Z,12.40
2019-04-27T09:12:53.882Z,12.30
2019-04-27T09:18:38.980Z,12.10
2019-04-27T09:21:21.568Z,12.20
2019-04-27T09:24:02.076Z,12.20
2019-04-27T09:26:43.107Z,12.20
2019-04-27T09:29:26.920Z,12.30
2019-04-27T09:32:08.877Z,12.50
2019-04-27T09:34:50.354Z,12.80
2019-04-27T09:37:31.444Z,12.90
2019-04-27T09:40:12.168Z,13.20
2019-04-27T09:42:52.916Z,14.10
2019-04-27T09:45:33.837Z,15.30
2019-04-27T09:48:14.207Z,15.90
2019-04-27T09:50:55.973Z,16.20
2019-04-27T09:53:37.177Z,16.30
2019-04-27T09:56:17.913Z,15.80
2019-04-27T09:58:58.480Z,15.40
2019-04-27T10:01:39.379Z,14.90
2019-04-27T10:04:19.833Z,14.90
2019-04-27T10:07:00.532Z,14.50
2019-04-27T10:09:40.990Z,14.40
2019-04-27T10:12:21.868Z,14.40
2019-04-27T10:15:02.512Z,14.50
2019-04-27T10:17:42.976Z,14.30
2019-04-27T10:20:23.396Z,14.00
2019-04-27T10:23:06.078Z,13.80
2019-04-27T10:25:46.215Z,13.70
2019-04-27T10:28:27.375Z,13.60
2019-04-27T10:31:08.407Z,13.30
2019-04-27T10:33:49.352Z,13.20
2019-04-27T10:36:50.343Z,13.00
2019-04-27T10:39:30.680Z,13.00
2019-04-27T10:42:11.504Z,13.00
2019-04-27T10:44:52.205Z,12.90
2019-04-27T10:47:32.804Z,13.00
2019-04-27T10:50:13.616Z,13.00
2019-04-27T10:52:54.267Z,13.00
2019-04-27T10:55:36.301Z,13.00
2019-04-27T10:58:17.385Z,12.90
2019-04-27T11:00:59.639Z,12.80
2019-04-27T11:06:27.324Z,12.50
2019-04-27T11:09:08.482Z,12.40
2019-04-27T11:11:48.781Z,12.40
2019-04-27T11:14:29.624Z,12.50
2019-04-27T11:17:11.132Z,12.70
2019-04-27T11:19:52.268Z,12.70
2019-04-27T11:22:33.182Z,12.60
2019-04-27T11:25:13.576Z,12.60
2019-04-27T11:27:55.911Z,12.50
2019-04-27T11:30:37.131Z,12.40
2019-04-27T11:33:17.828Z,12.40
2019-04-27T11:36:18.922Z,12.40
2019-04-27T11:39:04.287Z,12.40
2019-04-27T11:41:45.053Z,12.40
2019-04-27T11:44:25.865Z,12.40
2019-04-27T11:47:06.665Z,12.40
2019-04-27T11:49:47.355Z,12.40
2019-04-27T11:52:27.996Z,12.50
2019-04-27T11:55:08.492Z,12.50
2019-04-27T11:57:49.389Z,12.60
2019-04-27T12:00:29.984Z,12.60
2019-04-27T12:03:10.500Z,12.70
2019-04-27T12:05:51.480Z,13.00
2019-04-27T12:08:31.800Z,13.10
2019-04-27T12:11:12.252Z,13.30
2019-04-27T12:13:53.076Z,13.40
2019-04-27T12:16:33.728Z,13.40
2019-04-27T12:19:14.383Z,13.30
2019-04-27T12:21:56.522Z,13.20
2019-04-27T12:24:36.784Z,13.20
2019-04-27T12:27:21.892Z,13.30
2019-04-27T12:30:06.151Z,13.40
2019-04-27T12:32:46.083Z,13.50
2019-04-27T12:35:26.847Z,13.50
2019-04-27T12:38:07.316Z,13.70
2019-04-27T12:40:47.903Z,14.10
2019-04-27T12:43:28.540Z,14.30
2019-04-27T12:46:09.220Z,14.40
2019-04-27T12:48:49.752Z,14.40
2019-04-27T12:51:30.435Z,14.60
2019-04-27T12:57:20.889Z,15.10
2019-04-27T13:03:06.151Z,14.90
2019-04-27T13:05:47.118Z,14.60
2019-04-27T13:08:27.908Z,14.40
2019-04-27T13:11:08.311Z,13.80
2019-04-27T13:13:49.184Z,13.20
2019-04-27T13:16:30.518Z,12.40
2019-04-27T13:19:11.763Z,11.90
2019-04-27T13:21:52.495Z,11.60
2019-04-27T13:24:33.192Z,11.40
2019-04-27T13:27:13.848Z,11.40
2019-04-27T13:29:55.669Z,11.30
2019-04-27T13:32:37.504Z,11.30
2019-04-27T13:35:18.035Z,11.30
2019-04-27T13:37:58.845Z,11.40
2019-04-27T13:40:41.400Z,11.30
2019-04-27T13:43:26.620Z,11.30
2019-04-27T13:46:09.197Z,11.20
2019-04-27T13:49:10.688Z,11.30
2019-04-27T13:51:53.392Z,11.30
2019-04-27T13:54:34.061Z,11.40
2019-04-27T13:57:16.436Z,11.50
2019-04-27T13:59:57.320Z,11.60
2019-04-27T14:02:38.012Z,11.50
2019-04-27T14:05:18.472Z,11.50
2019-04-27T14:07:59.352Z,11.40
2019-04-27T14:10:39.787Z,11.30
2019-04-27T14:13:20.600Z,11.30
2019-04-27T14:16:01.353Z,11.30
2019-04-27T14:18:41.935Z,11.40
2019-04-27T14:21:23.046Z,11.50
2019-04-27T14:24:03.444Z,11.80
2019-04-27T14:26:44.452Z,12.10
2019-04-27T14:29:25.057Z,12.40
2019-04-27T14:32:05.444Z,12.60
2019-04-27T14:34:46.056Z,12.60
2019-04-27T14:37:28.554Z,12.80
2019-04-27T14:40:09.287Z,12.90
2019-04-27T14:42:50.548Z,13.00
2019-04-27T14:45:32.409Z,13.00
2019-04-27T14:48:13.065Z,13.10
2019-04-27T14:50:56.900Z,13.10
2019-04-27T14:53:38.570Z,13.20
2019-04-27T14:56:19.922Z,13.30
2019-04-27T14:59:00.232Z,13.40
2019-04-27T15:01:40.820Z,13.40
2019-04-27T15:04:21.236Z,13.60
2019-04-27T15:07:01.680Z,14.00
2019-04-27T15:09:42.637Z,14.30
2019-04-27T15:12:24.455Z,14.60
2019-04-27T15:15:05.524Z,14.80
2019-04-27T15:17:45.865Z,14.80
2019-04-27T15:20:31.101Z,14.70
2019-04-27T15:23:11.724Z,14.50
2019-04-27T15:25:52.118Z,14.40
2019-04-27T15:40:08.586Z,12.90
2019-04-27T15:42:52.895Z,12.70
2019-04-27T15:45:24.218Z,12.60
2019-04-27T15:48:09.976Z,12.60
2019-04-27T15:51:02.874Z,12.60
2019-04-27T15:53:50.908Z,12.50
2019-04-27T15:56:37.092Z,12.70
2019-04-27T15:59:45.542Z,13.00
2019-04-27T16:02:33.263Z,13.10
2019-04-27T16:05:23.618Z,12.80
2019-04-27T16:08:15.334Z,12.70
2019-04-27T16:11:00.628Z,12.70
2019-04-27T16:13:48.798Z,12.60
2019-04-27T16:16:38.521Z,12.50
2019-04-27T16:19:28.711Z,12.40
2019-04-27T16:22:18.309Z,12.20
2019-04-27T16:25:08.245Z,12.10
2019-04-27T16:27:49.036Z,12.10
2019-04-27T16:30:28.761Z,12.20
2019-04-27T16:33:21.991Z,12.30
2019-04-27T16:36:06.901Z,12.30
2019-04-27T16:39:15.116Z,12.10
2019-04-27T16:42:02.866Z,11.40
2019-04-27T16:44:53.180Z,10.70
2019-04-27T16:47:40.028Z,10.30
2019-04-27T16:50:28.865Z,10.00
2019-04-27T16:53:18.536Z,9.80
2019-04-27T16:56:14.518Z,9.70
2019-04-27T16:59:05.404Z,9.70
2019-04-27T17:01:47.534Z,9.80
2019-04-27T17:04:36.036Z,9.90
2019-04-27T17:07:24.052Z,10.10
2019-04-27T17:10:16.440Z,10.20
2019-04-27T17:13:06.015Z,10.40
2019-04-27T17:16:10.316Z,10.40
2019-04-27T17:21:52.887Z,10.30
2019-04-27T17:24:46.416Z,10.30
2019-04-27T17:27:28.888Z,10.30
2019-04-27T17:30:12.598Z,10.40
2019-04-27T17:35:59.622Z,10.40
2019-04-27T17:38:50.925Z,10.50
2019-04-27T17:44:46.154Z,10.30
2019-04-27T17:47:34.164Z,10.10
2019-04-27T17:50:25.060Z,10.00
2019-04-27T17:53:11.696Z,9.80
2019-04-27T17:56:05.706Z,9.70
2019-04-27T17:58:52.150Z,9.60
2019-04-27T18:01:38.913Z,9.50
2019-04-27T18:04:28.832Z,9.40
2019-04-27T18:07:19.051Z,9.40
2019-04-27T18:10:08.744Z,9.40
2019-04-27T18:12:58.302Z,9.40
2019-04-27T18:15:50.659Z,9.40
2019-04-27T18:21:33.208Z,9.30
2019-04-27T18:30:10.500Z,9.20
2019-04-27T18:32:51.984Z,9.30
2019-04-27T18:35:32.759Z,9.30
2019-04-27T18:38:13.128Z,9.30
2019-04-27T18:40:53.714Z,9.20
2019-04-27T18:43:34.632Z,9.30
2019-04-27T18:46:21.552Z,9.30
2019-04-27T18:48:59.816Z,9.30
2019-04-27T18:51:42.807Z,9.30
2019-04-27T18:54:23.735Z,9.20
2019-04-27T18:57:04.983Z,9.20
2019-04-27T18:59:45.281Z,9.20
2019-04-27T19:02:25.728Z,9.20
2019-04-27T19:05:06.139Z,9.20
2019-04-27T19:07:48.418Z,9.30
2019-04-27T19:10:29.817Z,9.20
2019-04-27T19:13:10.768Z,9.20
2019-04-27T19:15:52.053Z,9.20
2019-04-27T19:18:32.444Z,9.20
2019-04-27T19:21:13.385Z,9.30
2019-04-27T19:23:54.256Z,9.30
2019-04-27T19:29:40.927Z,9.30
2019-04-27T19:32:22.175Z,9.30
2019-04-27T19:35:03.080Z,9.30
2019-04-27T19:37:43.596Z,9.40
2019-04-27T19:40:24.129Z,9.40
2019-04-27T19:43:04.995Z,9.40
2019-04-27T19:45:45.801Z,9.40
2019-04-27T19:48:28.528Z,9.50
2019-04-27T19:51:09.589Z,9.50
2019-04-27T19:53:50.429Z,9.40
2019-04-27T19:56:31.233Z,9.30
2019-04-27T19:59:32.139Z,9.20
2019-04-27T20:02:14.261Z,9.20
2019-04-27T20:04:58.841Z,9.20
2019-04-27T20:07:39.157Z,9.10
2019-04-27T20:10:20.295Z,9.10
2019-04-27T20:13:01.456Z,9.20
2019-04-27T20:15:43.026Z,9.10
2019-04-27T20:18:24.072Z,9.10
2019-04-27T20:21:04.700Z,9.10
2019-04-27T20:23:45.156Z,9.10
2019-04-27T20:26:26.090Z,9.00
2019-04-27T20:29:06.507Z,9.00
2019-04-27T20:31:47.317Z,9.00
2019-04-27T20:34:28.116Z,9.00
2019-04-27T20:37:08.884Z,9.00
2019-04-27T20:39:49.064Z,9.10
2019-04-27T20:42:31.289Z,9.00
2019-04-27T20:45:12.173Z,9.00
2019-04-27T20:47:52.964Z,9.00
2019-04-27T20:50:33.399Z,9.00
2019-04-27T20:53:15.393Z,9.00
2019-04-27T20:55:55.806Z,9.00
2019-04-27T20:58:36.580Z,8.90
2019-04-27T21:01:17.529Z,8.90
2019-04-27T21:04:00.930Z,8.80
2019-04-27T21:09:35.740Z,8.80
2019-04-27T21:12:16.088Z,8.80
2019-04-27T21:14:56.836Z,8.80
2019-04-27T21:17:37.721Z,8.80
2019-04-27T21:23:03.134Z,8.80
2019-04-27T21:25:43.748Z,8.90
2019-04-27T21:31:08.528Z,8.90
2019-04-27T21:33:49.464Z,8.90
2019-04-27T21:36:30.966Z,8.90
2019-04-27T21:39:11.669Z,8.90
2019-04-27T21:41:52.272Z,8.90
2019-04-27T21:44:33.096Z,8.90
2019-04-27T21:47:13.328Z,8.90
2019-04-27T21:49:54.303Z,8.90
2019-04-27T21:52:39.288Z,8.90
2019-04-27T21:55:21.818Z,8.80
2019-04-27T21:58:02.038Z,8.80
2019-04-27T22:00:44.412Z,8.70
2019-04-27T22:03:26.144Z,8.60
2019-04-27T22:06:06.715Z,8.60
2019-04-27T22:08:47.421Z,8.50
2019-04-27T22:11:27.724Z,8.40
2019-04-27T22:14:08.369Z,8.40
2019-04-27T22:16:48.941Z,8.40
2019-04-27T22:19:31.086Z,8.40
2019-04-27T22:22:13.484Z,8.30
2019-04-27T22:24:55.785Z,8.30
2019-04-27T22:27:36.755Z,8.30
2019-04-27T22:30:17.007Z,8.30
2019-04-27T22:32:57.860Z,8.30
2019-04-27T22:35:38.393Z,8.30
2019-04-27T22:38:19.212Z,8.30
2019-04-27T22:44:08.439Z,8.40
2019-04-27T22:46:55.411Z,8.40
2019-04-27T22:49:35.668Z,8.50
2019-04-27T22:52:16.284Z,8.50
2019-04-27T22:54:57.230Z,8.40
2019-04-27T22:57:41.407Z,8.30
2019-04-27T23:03:31.753Z,8.30
2019-04-27T23:06:13.072Z,8.30
2019-04-27T23:08:53.559Z,8.40
2019-04-27T23:11:34.063Z,8.40
2019-04-27T23:14:14.512Z,8.40
2019-04-27T23:16:56.516Z,8.40
2019-04-27T23:19:35.464Z,8.50
2019-04-27T23:22:23.411Z,8.50
2019-04-27T23:25:11.338Z,8.50
2019-04-27T23:27:53.072Z,8.50
2019-04-27T23:30:35.163Z,8.50
2019-04-27T23:33:15.892Z,8.50
2019-04-27T23:35:56.360Z,8.50
2019-04-27T23:38:36.865Z,8.50
2019-04-27T23:41:17.636Z,8.50
2019-04-27T23:43:57.976Z,8.50
2019-04-27T23:46:38.648Z,8.50
2019-04-27T23:49:19.152Z,8.50
2019-04-27T23:52:01.159Z,8.50
2019-04-27T23:54:42.961Z,8.40
2019-04-27T23:57:21.833Z,8.40
